sensor_id;sensor_type;location;lat;lon;timestamp;pressure;altitude;pressure_sealevel;temperature;humidity
6668;BME280;3370;47.712;9.082;2024-03-29T00:01:34;95460.16;;;4.63;89.74
6668;BME280;3370;47.712;9.082;2024-03-29T00:04:20;95468.97;;;4.56;89.16
6668;BME280;3370;47.712;9.082;2024-03-29T00:07:07;95454.19;;;4.45;90.60
6668;BME280;3370;47.712;9.082;2024-03-29T00:09:55;95450.50;;;4.33;90.65
6668;BME280;3370;47.712;9.082;2024-03-29T00:12:41;95446.63;;;4.44;89.88
6668;BME280;3370;47.712;9.082;2024-03-29T00:15:27;95445.75;;;4.45;88.29
6668;BME280;3370;47.712;9.082;2024-03-29T00:18:13;95432.28;;;4.05;91.00
6668;BME280;3370;47.712;9.082;2024-03-29T00:20:59;95435.25;;;3.95;93.55
6668;BME280;3370;47.712;9.082;2024-03-29T00:23:45;95434.88;;;3.84;95.34
6668;BME280;3370;47.712;9.082;2024-03-29T00:26:32;95420.25;;;3.89;95.92
6668;BME280;3370;47.712;9.082;2024-03-29T00:29:18;95411.75;;;3.90;96.32
6668;BME280;3370;47.712;9.082;2024-03-29T00:32:05;95405.91;;;3.88;96.60
6668;BME280;3370;47.712;9.082;2024-03-29T00:34:52;95384.47;;;3.94;96.26
6668;BME280;3370;47.712;9.082;2024-03-29T00:37:40;95377.84;;;3.90;96.66
6668;BME280;3370;47.712;9.082;2024-03-29T00:40:26;95371.31;;;3.84;96.80
6668;BME280;3370;47.712;9.082;2024-03-29T00:43:12;95359.66;;;3.80;97.57
6668;BME280;3370;47.712;9.082;2024-03-29T00:45:58;95356.22;;;3.81;97.57
6668;BME280;3370;47.712;9.082;2024-03-29T00:48:44;95347.22;;;3.74;98.21
6668;BME280;3370;47.712;9.082;2024-03-29T00:51:33;95333.91;;;3.69;98.31
6668;BME280;3370;47.712;9.082;2024-03-29T00:54:19;95325.94;;;3.57;99.01
6668;BME280;3370;47.712;9.082;2024-03-29T00:57:05;95315.91;;;3.54;99.00
6668;BME280;3370;47.712;9.082;2024-03-29T00:59:52;95301.53;;;3.53;99.13
6668;BME280;3370;47.712;9.082;2024-03-29T01:02:38;95305.47;;;3.41;98.34
6668;BME280;3370;47.712;9.082;2024-03-29T01:05:25;95304.03;;;3.36;98.25
6668;BME280;3370;47.712;9.082;2024-03-29T01:08:11;95306.34;;;3.40;98.63
6668;BME280;3370;47.712;9.082;2024-03-29T01:10:57;95309.16;;;3.53;98.12
6668;BME280;3370;47.712;9.082;2024-03-29T01:13:43;95312.06;;;3.64;97.49
6668;BME280;3370;47.712;9.082;2024-03-29T01:16:29;95309.63;;;3.80;96.53
6668;BME280;3370;47.712;9.082;2024-03-29T01:19:15;95301.16;;;3.80;96.40
6668;BME280;3370;47.712;9.082;2024-03-29T01:22:01;95297.59;;;3.84;95.87
6668;BME280;3370;47.712;9.082;2024-03-29T01:24:47;95304.00;;;3.74;96.43
6668;BME280;3370;47.712;9.082;2024-03-29T01:27:33;95309.91;;;3.74;96.21
6668;BME280;3370;47.712;9.082;2024-03-29T01:30:19;95319.38;;;3.71;96.09
6668;BME280;3370;47.712;9.082;2024-03-29T01:33:07;95327.38;;;3.63;96.79
6668;BME280;3370;47.712;9.082;2024-03-29T01:35:53;95331.00;;;3.57;96.84
6668;BME280;3370;47.712;9.082;2024-03-29T01:38:39;95322.13;;;3.66;95.71
6668;BME280;3370;47.712;9.082;2024-03-29T01:41:25;95290.13;;;3.81;94.64
6668;BME280;3370;47.712;9.082;2024-03-29T01:44:13;95300.28;;;3.81;93.45
6668;BME280;3370;47.712;9.082;2024-03-29T01:47:00;95330.44;;;3.32;95.17
6668;BME280;3370;47.712;9.082;2024-03-29T01:49:46;95337.16;;;3.14;96.41
6668;BME280;3370;47.712;9.082;2024-03-29T01:52:32;95343.81;;;3.16;97.65
6668;BME280;3370;47.712;9.082;2024-03-29T01:55:18;95325.53;;;3.08;98.57
6668;BME280;3370;47.712;9.082;2024-03-29T01:58:05;95330.94;;;3.21;98.57
6668;BME280;3370;47.712;9.082;2024-03-29T02:00:58;95354.38;;;2.86;97.84
6668;BME280;3370;47.712;9.082;2024-03-29T02:03:46;95330.63;;;2.87;97.76
6668;BME280;3370;47.712;9.082;2024-03-29T02:06:33;95336.84;;;3.01;99.64
6668;BME280;3370;47.712;9.082;2024-03-29T02:09:19;95335.31;;;2.97;99.98
6668;BME280;3370;47.712;9.082;2024-03-29T02:12:05;95335.91;;;3.03;100.00
6668;BME280;3370;47.712;9.082;2024-03-29T02:14:52;95324.22;;;2.99;100.00
6668;BME280;3370;47.712;9.082;2024-03-29T02:17:38;95308.31;;;3.15;99.08
6668;BME280;3370;47.712;9.082;2024-03-29T02:20:24;95299.69;;;3.38;95.36
6668;BME280;3370;47.712;9.082;2024-03-29T02:23:19;95310.50;;;3.03;95.77
6668;BME280;3370;47.712;9.082;2024-03-29T02:26:05;95294.56;;;3.00;97.85
6668;BME280;3370;47.712;9.082;2024-03-29T02:28:51;95314.50;;;3.09;98.06
6668;BME280;3370;47.712;9.082;2024-03-29T02:31:37;95306.91;;;2.88;97.04
6668;BME280;3370;47.712;9.082;2024-03-29T02:34:23;95319.59;;;2.88;95.66
6668;BME280;3370;47.712;9.082;2024-03-29T02:37:10;95304.38;;;2.68;96.95
6668;BME280;3370;47.712;9.082;2024-03-29T02:39:56;95305.59;;;2.80;98.77
6668;BME280;3370;47.712;9.082;2024-03-29T02:42:42;95299.53;;;2.82;98.33
6668;BME280;3370;47.712;9.082;2024-03-29T02:45:28;95291.81;;;2.85;96.99
6668;BME280;3370;47.712;9.082;2024-03-29T02:48:14;95293.75;;;2.99;95.41
6668;BME280;3370;47.712;9.082;2024-03-29T02:51:00;95297.41;;;2.73;96.06
6668;BME280;3370;47.712;9.082;2024-03-29T02:53:46;95296.28;;;2.60;98.21
6668;BME280;3370;47.712;9.082;2024-03-29T02:56:32;95309.13;;;2.55;99.64
6668;BME280;3370;47.712;9.082;2024-03-29T02:59:18;95308.19;;;2.58;100.00
6668;BME280;3370;47.712;9.082;2024-03-29T03:02:04;95319.44;;;2.52;100.00
6668;BME280;3370;47.712;9.082;2024-03-29T03:04:51;95328.88;;;2.48;100.00
6668;BME280;3370;47.712;9.082;2024-03-29T03:07:37;95324.81;;;2.65;99.92
6668;BME280;3370;47.712;9.082;2024-03-29T03:10:47;95329.63;;;2.71;99.00
6668;BME280;3370;47.712;9.082;2024-03-29T03:13:44;95344.75;;;2.74;98.59
6668;BME280;3370;47.712;9.082;2024-03-29T03:16:31;95339.78;;;2.71;98.97
6668;BME280;3370;47.712;9.082;2024-03-29T03:19:17;95330.44;;;2.72;99.19
6668;BME280;3370;47.712;9.082;2024-03-29T03:22:03;95327.72;;;2.76;98.48
6668;BME280;3370;47.712;9.082;2024-03-29T03:24:49;95303.13;;;2.58;99.51
6668;BME280;3370;47.712;9.082;2024-03-29T03:27:35;95305.59;;;2.59;100.00
6668;BME280;3370;47.712;9.082;2024-03-29T03:30:21;95278.50;;;2.60;100.00
6668;BME280;3370;47.712;9.082;2024-03-29T03:33:08;95293.16;;;2.53;100.00
6668;BME280;3370;47.712;9.082;2024-03-29T03:35:54;95292.28;;;2.54;100.00
6668;BME280;3370;47.712;9.082;2024-03-29T03:38:40;95291.44;;;2.74;99.60
6668;BME280;3370;47.712;9.082;2024-03-29T03:41:26;95279.22;;;2.82;98.92
6668;BME280;3370;47.712;9.082;2024-03-29T03:44:12;95293.72;;;2.80;98.74
6668;BME280;3370;47.712;9.082;2024-03-29T03:46:58;95306.63;;;2.76;99.13
6668;BME280;3370;47.712;9.082;2024-03-29T03:49:44;95313.13;;;2.61;100.00
6668;BME280;3370;47.712;9.082;2024-03-29T03:52:31;95320.34;;;2.70;100.00
6668;BME280;3370;47.712;9.082;2024-03-29T03:55:17;95325.31;;;2.73;100.00
6668;BME280;3370;47.712;9.082;2024-03-29T03:58:03;95327.22;;;2.88;99.57
6668;BME280;3370;47.712;9.082;2024-03-29T04:00:49;95323.66;;;2.93;99.03
6668;BME280;3370;47.712;9.082;2024-03-29T04:03:35;95327.47;;;2.82;98.93
6668;BME280;3370;47.712;9.082;2024-03-29T04:06:21;95321.47;;;3.04;97.93
6668;BME280;3370;47.712;9.082;2024-03-29T04:09:07;95316.28;;;3.07;97.02
6668;BME280;3370;47.712;9.082;2024-03-29T04:11:54;95316.41;;;3.04;96.28
6668;BME280;3370;47.712;9.082;2024-03-29T04:14:40;95314.19;;;2.96;95.80
6668;BME280;3370;47.712;9.082;2024-03-29T04:17:26;95319.09;;;2.80;97.13
6668;BME280;3370;47.712;9.082;2024-03-29T04:20:12;95332.41;;;2.85;97.04
6668;BME280;3370;47.712;9.082;2024-03-29T04:22:58;95323.13;;;2.84;97.11
6668;BME280;3370;47.712;9.082;2024-03-29T04:25:52;95314.59;;;2.87;98.08
6668;BME280;3370;47.712;9.082;2024-03-29T04:28:38;95311.16;;;2.88;98.22
6668;BME280;3370;47.712;9.082;2024-03-29T04:31:24;95325.56;;;2.87;95.74
6668;BME280;3370;47.712;9.082;2024-03-29T04:34:10;95322.66;;;2.76;96.84
6668;BME280;3370;47.712;9.082;2024-03-29T04:36:56;95328.22;;;2.64;97.93
6668;BME280;3370;47.712;9.082;2024-03-29T04:39:43;95317.97;;;2.67;98.48
6668;BME280;3370;47.712;9.082;2024-03-29T04:42:30;95316.19;;;2.69;98.55
6668;BME280;3370;47.712;9.082;2024-03-29T04:45:16;95308.56;;;2.69;99.40
6668;BME280;3370;47.712;9.082;2024-03-29T04:48:02;95338.53;;;2.81;98.72
6668;BME280;3370;47.712;9.082;2024-03-29T04:50:48;95330.38;;;2.94;99.94
6668;BME280;3370;47.712;9.082;2024-03-29T04:53:38;95337.75;;;3.00;99.10
6668;BME280;3370;47.712;9.082;2024-03-29T04:56:25;95338.25;;;2.87;100.00
6668;BME280;3370;47.712;9.082;2024-03-29T04:59:11;95334.56;;;2.95;100.00
6668;BME280;3370;47.712;9.082;2024-03-29T05:01:59;95348.53;;;3.05;100.00
6668;BME280;3370;47.712;9.082;2024-03-29T05:04:46;95326.03;;;3.16;100.00
6668;BME280;3370;47.712;9.082;2024-03-29T05:07:32;95313.06;;;3.22;100.00
6668;BME280;3370;47.712;9.082;2024-03-29T05:10:18;95310.78;;;3.16;99.88
6668;BME280;3370;47.712;9.082;2024-03-29T05:13:04;95321.53;;;3.23;99.77
6668;BME280;3370;47.712;9.082;2024-03-29T05:15:50;95316.63;;;3.18;98.96
6668;BME280;3370;47.712;9.082;2024-03-29T05:18:37;95338.84;;;3.13;97.35
6668;BME280;3370;47.712;9.082;2024-03-29T05:21:23;95361.22;;;3.05;97.80
6668;BME280;3370;47.712;9.082;2024-03-29T05:24:09;95418.47;;;2.92;98.72
6668;BME280;3370;47.712;9.082;2024-03-29T05:26:55;95452.91;;;2.77;100.00
6668;BME280;3370;47.712;9.082;2024-03-29T05:29:41;95456.28;;;2.77;100.00
6668;BME280;3370;47.712;9.082;2024-03-29T05:32:27;95462.47;;;2.92;100.00
6668;BME280;3370;47.712;9.082;2024-03-29T05:35:14;95460.50;;;2.99;100.00
6668;BME280;3370;47.712;9.082;2024-03-29T05:38:00;95464.22;;;3.12;100.00
6668;BME280;3370;47.712;9.082;2024-03-29T05:40:47;95460.78;;;3.34;100.00
6668;BME280;3370;47.712;9.082;2024-03-29T05:43:33;95437.19;;;3.51;100.00
6668;BME280;3370;47.712;9.082;2024-03-29T05:46:19;95433.63;;;3.55;99.25
6668;BME280;3370;47.712;9.082;2024-03-29T05:49:06;95437.59;;;3.60;99.55
6668;BME280;3370;47.712;9.082;2024-03-29T05:51:52;95411.56;;;3.55;97.35
6668;BME280;3370;47.712;9.082;2024-03-29T05:54:38;95399.22;;;3.67;96.87
6668;BME280;3370;47.712;9.082;2024-03-29T05:57:24;95373.34;;;3.77;96.75
6668;BME280;3370;47.712;9.082;2024-03-29T06:00:16;95323.25;;;3.97;94.40
6668;BME280;3370;47.712;9.082;2024-03-29T06:03:03;95306.13;;;4.00;93.92
6668;BME280;3370;47.712;9.082;2024-03-29T06:05:49;95300.78;;;4.07;93.99
6668;BME280;3370;47.712;9.082;2024-03-29T06:08:35;95296.09;;;4.34;94.84
6668;BME280;3370;47.712;9.082;2024-03-29T06:11:21;95362.47;;;4.29;94.78
6668;BME280;3370;47.712;9.082;2024-03-29T06:14:07;95375.34;;;4.26;94.91
6668;BME280;3370;47.712;9.082;2024-03-29T06:16:53;95370.97;;;4.11;93.77
6668;BME280;3370;47.712;9.082;2024-03-29T06:19:57;95377.91;;;4.07;92.53
6668;BME280;3370;47.712;9.082;2024-03-29T06:22:46;95376.78;;;4.13;92.88
6668;BME280;3370;47.712;9.082;2024-03-29T06:25:32;95381.31;;;4.25;93.67
6668;BME280;3370;47.712;9.082;2024-03-29T06:28:18;95384.78;;;4.41;93.74
6668;BME280;3370;47.712;9.082;2024-03-29T06:31:04;95401.13;;;4.55;92.50
6668;BME280;3370;47.712;9.082;2024-03-29T06:33:50;95406.53;;;4.84;92.09
6668;BME280;3370;47.712;9.082;2024-03-29T06:36:36;95400.72;;;4.99;91.25
6668;BME280;3370;47.712;9.082;2024-03-29T06:39:23;95392.59;;;4.91;92.39
6668;BME280;3370;47.712;9.082;2024-03-29T06:42:11;95386.91;;;5.03;92.52
6668;BME280;3370;47.712;9.082;2024-03-29T06:44:57;95392.28;;;5.14;92.55
6668;BME280;3370;47.712;9.082;2024-03-29T06:47:44;95391.59;;;5.28;92.03
6668;BME280;3370;47.712;9.082;2024-03-29T06:50:30;95379.22;;;5.38;90.85
6668;BME280;3370;47.712;9.082;2024-03-29T06:53:16;95365.97;;;5.47;90.53
6668;BME280;3370;47.712;9.082;2024-03-29T06:56:03;95368.66;;;5.62;90.50
6668;BME280;3370;47.712;9.082;2024-03-29T06:58:49;95357.66;;;5.77;90.01
6668;BME280;3370;47.712;9.082;2024-03-29T07:01:35;95361.22;;;6.06;92.69
6668;BME280;3370;47.712;9.082;2024-03-29T07:04:23;95356.34;;;6.18;87.74
6668;BME280;3370;47.712;9.082;2024-03-29T07:07:09;95358.47;;;6.25;87.00
6668;BME280;3370;47.712;9.082;2024-03-29T07:09:56;95369.19;;;6.32;82.16
6668;BME280;3370;47.712;9.082;2024-03-29T07:12:42;95365.59;;;6.50;79.59
6668;BME280;3370;47.712;9.082;2024-03-29T07:15:28;95361.34;;;6.51;80.85
6668;BME280;3370;47.712;9.082;2024-03-29T07:18:14;95350.59;;;6.60;82.40
6668;BME280;3370;47.712;9.082;2024-03-29T07:21:01;95360.50;;;6.81;78.90
6668;BME280;3370;47.712;9.082;2024-03-29T07:23:47;95363.09;;;6.95;78.89
6668;BME280;3370;47.712;9.082;2024-03-29T07:26:33;95358.63;;;6.99;76.68
6668;BME280;3370;47.712;9.082;2024-03-29T07:29:20;95348.50;;;6.97;76.82
6668;BME280;3370;47.712;9.082;2024-03-29T07:32:06;95357.44;;;7.04;74.12
6668;BME280;3370;47.712;9.082;2024-03-29T07:34:52;95324.94;;;7.06;74.87
6668;BME280;3370;47.712;9.082;2024-03-29T07:37:38;95314.66;;;7.08;75.70
6668;BME280;3370;47.712;9.082;2024-03-29T07:40:25;95298.13;;;7.28;77.49
6668;BME280;3370;47.712;9.082;2024-03-29T07:43:11;95287.81;;;7.44;76.11
6668;BME280;3370;47.712;9.082;2024-03-29T07:45:59;95293.06;;;7.55;78.04
6668;BME280;3370;47.712;9.082;2024-03-29T07:48:45;95282.56;;;7.60;73.35
6668;BME280;3370;47.712;9.082;2024-03-29T07:51:31;95301.78;;;7.53;72.49
6668;BME280;3370;47.712;9.082;2024-03-29T07:54:18;95283.84;;;7.67;72.60
6668;BME280;3370;47.712;9.082;2024-03-29T07:57:04;95290.59;;;7.68;75.60
6668;BME280;3370;47.712;9.082;2024-03-29T07:59:50;95289.13;;;7.64;75.17
6668;BME280;3370;47.712;9.082;2024-03-29T08:02:37;95294.88;;;7.67;72.42
6668;BME280;3370;47.712;9.082;2024-03-29T08:05:24;95295.44;;;7.73;71.41
6668;BME280;3370;47.712;9.082;2024-03-29T08:08:10;95290.38;;;7.85;67.75
6668;BME280;3370;47.712;9.082;2024-03-29T08:10:56;95294.56;;;7.86;69.08
6668;BME280;3370;47.712;9.082;2024-03-29T08:13:42;95305.13;;;7.53;70.73
6668;BME280;3370;47.712;9.082;2024-03-29T08:16:28;95302.84;;;7.63;72.72
6668;BME280;3370;47.712;9.082;2024-03-29T08:19:14;95308.00;;;7.76;72.95
6668;BME280;3370;47.712;9.082;2024-03-29T08:22:01;95302.06;;;7.90;73.31
6668;BME280;3370;47.712;9.082;2024-03-29T08:24:47;95303.09;;;7.73;74.62
6668;BME280;3370;47.712;9.082;2024-03-29T08:27:33;95307.56;;;7.83;73.68
6668;BME280;3370;47.712;9.082;2024-03-29T08:30:20;95320.19;;;7.99;73.30
6668;BME280;3370;47.712;9.082;2024-03-29T08:33:06;95348.78;;;7.79;79.42
6668;BME280;3370;47.712;9.082;2024-03-29T08:35:52;95350.38;;;7.53;81.47
6668;BME280;3370;47.712;9.082;2024-03-29T08:38:38;95341.84;;;7.66;83.49
6668;BME280;3370;47.712;9.082;2024-03-29T08:41:28;95340.38;;;7.77;81.74
6668;BME280;3370;47.712;9.082;2024-03-29T08:44:14;95350.38;;;8.09;79.14
6668;BME280;3370;47.712;9.082;2024-03-29T08:47:00;95336.31;;;8.29;77.36
6668;BME280;3370;47.712;9.082;2024-03-29T08:49:47;95338.16;;;8.54;75.69
6668;BME280;3370;47.712;9.082;2024-03-29T08:52:33;95348.75;;;8.75;76.47
6668;BME280;3370;47.712;9.082;2024-03-29T08:55:19;95345.06;;;8.79;75.38
6668;BME280;3370;47.712;9.082;2024-03-29T08:58:05;95350.03;;;8.95;74.26
6668;BME280;3370;47.712;9.082;2024-03-29T09:00:55;95346.56;;;9.09;71.50
6668;BME280;3370;47.712;9.082;2024-03-29T09:03:41;95340.81;;;9.44;70.09
6668;BME280;3370;47.712;9.082;2024-03-29T09:06:27;95325.81;;;9.63;70.97
6668;BME280;3370;47.712;9.082;2024-03-29T09:09:13;95332.44;;;9.78;68.72
6668;BME280;3370;47.712;9.082;2024-03-29T09:12:00;95326.34;;;9.92;69.82
6668;BME280;3370;47.712;9.082;2024-03-29T09:14:46;95321.47;;;10.01;67.49
6668;BME280;3370;47.712;9.082;2024-03-29T09:17:32;95321.94;;;10.18;69.65
6668;BME280;3370;47.712;9.082;2024-03-29T09:20:18;95319.09;;;10.10;66.69
6668;BME280;3370;47.712;9.082;2024-03-29T09:23:04;95327.22;;;10.41;66.88
6668;BME280;3370;47.712;9.082;2024-03-29T09:25:51;95322.81;;;10.54;66.00
6668;BME280;3370;47.712;9.082;2024-03-29T09:28:37;95310.59;;;10.69;63.35
6668;BME280;3370;47.712;9.082;2024-03-29T09:31:23;95308.91;;;11.04;64.29
6668;BME280;3370;47.712;9.082;2024-03-29T09:34:09;95304.03;;;11.23;63.55
6668;BME280;3370;47.712;9.082;2024-03-29T09:36:55;95305.22;;;11.19;62.08
6668;BME280;3370;47.712;9.082;2024-03-29T09:39:41;95302.19;;;11.48;62.60
6668;BME280;3370;47.712;9.082;2024-03-29T09:42:27;95297.50;;;11.42;63.77
6668;BME280;3370;47.712;9.082;2024-03-29T09:45:17;95307.44;;;11.58;61.13
6668;BME280;3370;47.712;9.082;2024-03-29T09:48:06;95303.31;;;11.78;59.45
6668;BME280;3370;47.712;9.082;2024-03-29T09:50:54;95292.31;;;11.87;60.59
6668;BME280;3370;47.712;9.082;2024-03-29T09:53:44;95293.59;;;12.04;60.05
6668;BME280;3370;47.712;9.082;2024-03-29T09:56:32;95300.91;;;12.31;59.80
6668;BME280;3370;47.712;9.082;2024-03-29T09:59:18;95296.22;;;12.25;60.41
6668;BME280;3370;47.712;9.082;2024-03-29T10:02:19;95295.31;;;12.47;60.79
6668;BME280;3370;47.712;9.082;2024-03-29T10:05:08;95293.97;;;12.64;59.72
6668;BME280;3370;47.712;9.082;2024-03-29T10:07:54;95270.63;;;12.87;59.63
6668;BME280;3370;47.712;9.082;2024-03-29T10:10:41;95252.97;;;13.34;57.18
6668;BME280;3370;47.712;9.082;2024-03-29T10:13:27;95257.34;;;13.43;57.58
6668;BME280;3370;47.712;9.082;2024-03-29T10:16:13;95249.78;;;13.51;60.77
6668;BME280;3370;47.712;9.082;2024-03-29T10:19:04;95243.13;;;13.58;55.11
6668;BME280;3370;47.712;9.082;2024-03-29T10:21:52;95243.59;;;13.83;54.20
6668;BME280;3370;47.712;9.082;2024-03-29T10:24:38;95246.88;;;14.05;55.75
6668;BME280;3370;47.712;9.082;2024-03-29T10:27:26;95239.94;;;13.95;55.88
6668;BME280;3370;47.712;9.082;2024-03-29T10:30:13;95241.72;;;13.85;54.76
6668;BME280;3370;47.712;9.082;2024-03-29T10:33:05;95242.81;;;14.02;57.41
6668;BME280;3370;47.712;9.082;2024-03-29T10:35:51;95222.81;;;14.14;54.25
6668;BME280;3370;47.712;9.082;2024-03-29T10:38:38;95209.09;;;14.33;52.89
6668;BME280;3370;47.712;9.082;2024-03-29T10:41:25;95205.81;;;14.60;53.14
6668;BME280;3370;47.712;9.082;2024-03-29T10:44:12;95218.00;;;14.87;49.87
6668;BME280;3370;47.712;9.082;2024-03-29T10:46:59;95220.44;;;15.26;45.54
6668;BME280;3370;47.712;9.082;2024-03-29T10:49:50;95221.00;;;15.58;43.35
6668;BME280;3370;47.712;9.082;2024-03-29T10:52:37;95223.88;;;15.82;46.03
6668;BME280;3370;47.712;9.082;2024-03-29T10:55:24;95222.44;;;15.98;46.15
6668;BME280;3370;47.712;9.082;2024-03-29T10:58:11;95222.94;;;15.83;44.16
6668;BME280;3370;47.712;9.082;2024-03-29T11:00:58;95230.22;;;15.98;43.69
6668;BME280;3370;47.712;9.082;2024-03-29T11:03:50;95230.59;;;16.03;44.53
6668;BME280;3370;47.712;9.082;2024-03-29T11:06:39;95235.47;;;16.06;44.42
6668;BME280;3370;47.712;9.082;2024-03-29T11:09:28;95217.16;;;16.07;44.78
6668;BME280;3370;47.712;9.082;2024-03-29T11:12:18;95222.88;;;16.47;46.54
6668;BME280;3370;47.712;9.082;2024-03-29T11:15:06;95226.91;;;16.49;46.34
6668;BME280;3370;47.712;9.082;2024-03-29T11:17:57;95226.97;;;16.76;45.69
6668;BME280;3370;47.712;9.082;2024-03-29T11:20:46;95228.78;;;17.01;44.05
6668;BME280;3370;47.712;9.082;2024-03-29T11:23:37;95210.06;;;17.24;43.72
6668;BME280;3370;47.712;9.082;2024-03-29T11:26:24;95200.06;;;17.37;43.51
6668;BME280;3370;47.712;9.082;2024-03-29T11:29:22;95186.03;;;17.65;41.79
6668;BME280;3370;47.712;9.082;2024-03-29T11:32:09;95175.75;;;18.14;43.66
6668;BME280;3370;47.712;9.082;2024-03-29T11:34:56;95175.25;;;18.59;42.80
6668;BME280;3370;47.712;9.082;2024-03-29T11:37:43;95161.22;;;18.93;42.81
6668;BME280;3370;47.712;9.082;2024-03-29T11:40:32;95147.94;;;19.20;41.46
6668;BME280;3370;47.712;9.082;2024-03-29T11:43:18;95147.84;;;19.44;40.96
6668;BME280;3370;47.712;9.082;2024-03-29T11:46:07;95143.66;;;19.35;40.53
6668;BME280;3370;47.712;9.082;2024-03-29T11:48:53;95141.03;;;19.04;39.90
6668;BME280;3370;47.712;9.082;2024-03-29T11:51:41;95134.81;;;19.13;42.49
6668;BME280;3370;47.712;9.082;2024-03-29T11:54:27;95119.94;;;19.22;42.27
6668;BME280;3370;47.712;9.082;2024-03-29T11:57:13;95121.06;;;19.59;42.90
6668;BME280;3370;47.712;9.082;2024-03-29T11:59:59;95133.09;;;19.60;40.44
6668;BME280;3370;47.712;9.082;2024-03-29T12:02:45;95139.72;;;19.39;45.99
6668;BME280;3370;47.712;9.082;2024-03-29T12:05:32;95132.63;;;19.25;48.63
6668;BME280;3370;47.712;9.082;2024-03-29T12:08:18;95125.03;;;19.07;47.43
6668;BME280;3370;47.712;9.082;2024-03-29T12:11:05;95128.91;;;19.19;46.66
6668;BME280;3370;47.712;9.082;2024-03-29T12:13:52;95117.34;;;19.22;46.26
6668;BME280;3370;47.712;9.082;2024-03-29T12:16:45;95124.38;;;19.44;45.14
6668;BME280;3370;47.712;9.082;2024-03-29T12:19:31;95139.13;;;19.91;43.92
6668;BME280;3370;47.712;9.082;2024-03-29T12:22:21;95133.19;;;19.98;41.21
6668;BME280;3370;47.712;9.082;2024-03-29T12:25:08;95132.19;;;19.84;42.31
6668;BME280;3370;47.712;9.082;2024-03-29T12:27:54;95134.31;;;19.49;40.39
6668;BME280;3370;47.712;9.082;2024-03-29T12:30:47;95142.59;;;19.52;40.09
6668;BME280;3370;47.712;9.082;2024-03-29T12:33:33;95140.50;;;20.25;38.32
6668;BME280;3370;47.712;9.082;2024-03-29T12:36:23;95128.19;;;22.05;35.18
6668;BME280;3370;47.712;9.082;2024-03-29T12:39:13;95128.03;;;22.13;33.05
6668;BME280;3370;47.712;9.082;2024-03-29T12:41:59;95126.59;;;22.82;33.22
6668;BME280;3370;47.712;9.082;2024-03-29T12:44:46;95129.75;;;22.70;32.24
6668;BME280;3370;47.712;9.082;2024-03-29T12:47:34;95137.97;;;22.17;32.62
6668;BME280;3370;47.712;9.082;2024-03-29T12:50:32;95140.16;;;22.35;34.56
6668;BME280;3370;47.712;9.082;2024-03-29T12:53:18;95134.25;;;22.27;34.68
6668;BME280;3370;47.712;9.082;2024-03-29T12:56:05;95142.88;;;22.49;33.69
6668;BME280;3370;47.712;9.082;2024-03-29T12:58:51;95144.09;;;22.46;34.29
6668;BME280;3370;47.712;9.082;2024-03-29T13:01:37;95133.53;;;22.39;34.64
6668;BME280;3370;47.712;9.082;2024-03-29T13:04:24;95140.94;;;22.57;34.01
6668;BME280;3370;47.712;9.082;2024-03-29T13:07:10;95138.75;;;22.96;34.79
6668;BME280;3370;47.712;9.082;2024-03-29T13:10:00;95139.50;;;22.83;33.99
6668;BME280;3370;47.712;9.082;2024-03-29T13:12:49;95152.38;;;22.07;33.98
6668;BME280;3370;47.712;9.082;2024-03-29T13:15:39;95146.69;;;20.85;35.59
6668;BME280;3370;47.712;9.082;2024-03-29T13:18:27;95159.09;;;20.83;36.93
6668;BME280;3370;47.712;9.082;2024-03-29T13:21:13;95139.53;;;21.24;36.56
6668;BME280;3370;47.712;9.082;2024-03-29T13:23:59;95146.31;;;21.18;36.13
6668;BME280;3370;47.712;9.082;2024-03-29T13:26:45;95142.06;;;20.73;36.82
6668;BME280;3370;47.712;9.082;2024-03-29T13:29:31;95145.34;;;20.52;36.42
6668;BME280;3370;47.712;9.082;2024-03-29T13:32:17;95142.53;;;21.06;36.83
6668;BME280;3370;47.712;9.082;2024-03-29T13:35:04;95147.38;;;20.79;35.46
6668;BME280;3370;47.712;9.082;2024-03-29T13:37:52;95145.97;;;21.21;37.27
6668;BME280;3370;47.712;9.082;2024-03-29T13:40:41;95145.53;;;22.27;36.04
6668;BME280;3370;47.712;9.082;2024-03-29T13:43:28;95152.28;;;22.65;34.31
6668;BME280;3370;47.712;9.082;2024-03-29T13:46:14;95146.25;;;22.99;32.38
6668;BME280;3370;47.712;9.082;2024-03-29T13:49:01;95148.97;;;23.12;32.00
6668;BME280;3370;47.712;9.082;2024-03-29T13:51:47;95153.88;;;23.29;30.97
6668;BME280;3370;47.712;9.082;2024-03-29T13:54:33;95153.59;;;23.52;32.33
6668;BME280;3370;47.712;9.082;2024-03-29T13:57:20;95146.69;;;22.74;29.61
6668;BME280;3370;47.712;9.082;2024-03-29T14:00:07;95157.34;;;22.45;29.62
6668;BME280;3370;47.712;9.082;2024-03-29T14:02:53;95152.28;;;22.65;31.64
6668;BME280;3370;47.712;9.082;2024-03-29T14:05:39;95158.47;;;23.13;30.59
6668;BME280;3370;47.712;9.082;2024-03-29T14:08:25;95168.78;;;22.65;29.67
6668;BME280;3370;47.712;9.082;2024-03-29T14:11:12;95158.31;;;22.65;32.27
6668;BME280;3370;47.712;9.082;2024-03-29T14:13:59;95163.44;;;22.73;31.18
6668;BME280;3370;47.712;9.082;2024-03-29T14:16:46;95157.38;;;22.51;30.58
6668;BME280;3370;47.712;9.082;2024-03-29T14:19:36;95162.59;;;22.45;30.93
6668;BME280;3370;47.712;9.082;2024-03-29T14:22:22;95156.25;;;22.61;32.23
6668;BME280;3370;47.712;9.082;2024-03-29T14:25:09;95161.84;;;22.79;32.39
6668;BME280;3370;47.712;9.082;2024-03-29T14:27:56;95154.38;;;23.04;32.87
6668;BME280;3370;47.712;9.082;2024-03-29T14:30:45;95155.66;;;22.87;30.88
6668;BME280;3370;47.712;9.082;2024-03-29T14:33:31;95148.13;;;22.27;31.84
6668;BME280;3370;47.712;9.082;2024-03-29T14:36:17;95159.72;;;22.18;32.19
6668;BME280;3370;47.712;9.082;2024-03-29T14:39:03;95154.38;;;21.90;33.39
6668;BME280;3370;47.712;9.082;2024-03-29T14:41:49;95156.19;;;21.68;32.61
6668;BME280;3370;47.712;9.082;2024-03-29T14:44:39;95153.41;;;21.54;33.63
6668;BME280;3370;47.712;9.082;2024-03-29T14:47:25;95152.41;;;21.55;34.40
6668;BME280;3370;47.712;9.082;2024-03-29T14:50:11;95158.38;;;21.49;33.13
6668;BME280;3370;47.712;9.082;2024-03-29T14:52:57;95151.06;;;21.30;32.49
6668;BME280;3370;47.712;9.082;2024-03-29T14:55:44;95146.31;;;21.18;33.04
6668;BME280;3370;47.712;9.082;2024-03-29T14:58:30;95141.53;;;21.22;33.53
6668;BME280;3370;47.712;9.082;2024-03-29T15:01:16;95149.34;;;21.37;34.19
6668;BME280;3370;47.712;9.082;2024-03-29T15:04:03;95150.63;;;21.26;34.87
6668;BME280;3370;47.712;9.082;2024-03-29T15:06:49;95150.91;;;21.01;34.15
6668;BME280;3370;47.712;9.082;2024-03-29T15:09:35;95154.06;;;20.82;33.96
6668;BME280;3370;47.712;9.082;2024-03-29T15:12:21;95151.97;;;20.77;33.70
6668;BME280;3370;47.712;9.082;2024-03-29T15:15:07;95148.09;;;20.73;35.15